Time;durP1;ratioP1;P1;durP2;ratioP2;P2;SDS_P1;SDS_P2;PMS_P1;PMS_P2;Temp;Humidity;BMP_temperature;BMP_pressure;BME280_temperature;BME280_humidity;BME280_pressure;Samples;Min_cycle;Max_cycle;Signal;HPM_P1;HPM_P2
2023/06/30 00:02:12;;;;;;;6.05;4.18;;;17.60;99.90;;;;;;5080440;28;20039;-71
2023/06/30 00:04:38;;;;;;;6.05;4.30;;;17.50;99.90;;;;;;5115632;28;20035;-71
2023/06/30 00:07:05;;;;;;;5.40;3.58;;;17.50;99.90;;;;;;5115167;28;20051;-71
2023/06/30 00:09:31;;;;;;;7.68;4.05;;;17.50;99.90;;;;;;5115106;28;20076;-71
2023/06/30 00:11:57;;;;;;;7.53;4.15;;;17.60;99.90;;;;;;5079595;28;20489;-71
2023/06/30 00:14:23;;;;;;;6.57;3.83;;;17.60;99.90;;;;;;5114769;28;20039;-71
2023/06/30 00:16:49;;;;;;;6.05;4.28;;;17.70;99.90;;;;;;5114995;28;20035;-71
2023/06/30 00:19:16;;;;;;;6.85;4.70;;;17.70;99.90;;;;;;5114945;28;20061;-71
2023/06/30 00:21:42;;;;;;;7.78;5.22;;;17.80;99.90;;;;;;5114879;28;20528;-71
2023/06/30 00:24:13;;;;;;;5.95;4.40;;;17.70;99.90;;;;;;5115021;28;20035;-71
2023/06/30 00:26:39;;;;;;;;;;;17.70;99.90;;;;;;5114937;28;20019;-71
2023/06/30 00:29:04;;;;;;;6.85;4.68;;;17.60;99.90;;;;;;5114743;28;19910;-71
2023/06/30 00:31:30;;;;;;;6.75;4.63;;;17.50;99.90;;;;;;5114692;28;20482;-71
2023/06/30 00:33:56;;;;;;;7.45;5.47;;;17.50;99.90;;;;;;5115038;28;20027;-71
2023/06/30 00:36:22;;;;;;;9.13;6.30;;;17.50;99.90;;;;;;5114872;28;20022;-71
2023/06/30 00:38:49;;;;;;;11.65;7.90;;;17.50;99.90;;;;;;5114701;28;20019;-71
2023/06/30 00:41:15;;;;;;;9.25;5.78;;;17.60;99.90;;;;;;5115008;28;20074;-72
2023/06/30 00:43:41;;;;;;;8.60;5.43;;;17.60;99.90;;;;;;5114110;28;20482;-71
2023/06/30 00:46:11;;;;;;;8.85;5.18;;;17.60;99.90;;;;;;5114402;28;20020;-71
2023/06/30 00:48:36;;;;;;;7.45;5.00;;;17.60;99.90;;;;;;5114358;28;20037;-71
2023/06/30 00:51:02;;;;;;;6.93;4.68;;;17.60;99.90;;;;;;5114427;28;20114;-71
2023/06/30 00:53:28;;;;;;;9.77;6.43;;;17.70;99.90;;;;;;5114267;28;20023;-71
2023/06/30 00:55:53;;;;;;;9.48;4.97;;;17.60;99.90;;;;;;5115261;28;20024;-71
2023/06/30 00:58:19;;;;;;;7.85;4.78;;;17.50;99.90;;;;;;5095927;28;20016;-71
2023/06/30 01:00:45;;;;;;;7.32;4.85;;;17.40;99.90;;;;;;5114442;28;20389;-71
2023/06/30 01:03:48;;;;;;;6.90;4.63;;;17.30;99.90;;;;;;5114374;28;20024;-71
2023/06/30 01:06:19;;;;;;;7.45;4.60;;;17.30;99.90;;;;;;5114645;28;20378;-71
2023/06/30 01:08:55;;;;;;;7.18;4.63;;;17.30;99.90;;;;;;5114064;28;20061;-71
2023/06/30 01:11:24;;;;;;;7.57;4.70;;;17.30;99.90;;;;;;5113981;28;20023;-71
2023/06/30 01:13:50;;;;;;;8.30;4.40;;;17.40;99.90;;;;;;5113535;28;20038;-71
2023/06/30 01:16:17;;;;;;;6.63;4.43;;;17.40;99.90;;;;;;5113908;28;20091;-71
2023/06/30 01:18:45;;;;;;;9.68;4.80;;;17.40;99.90;;;;;;5114199;28;20477;-71
2023/06/30 01:21:13;;;;;;;8.15;5.60;;;17.40;99.90;;;;;;5113869;28;20035;-71
2023/06/30 01:23:45;;;;;;;6.97;4.75;;;17.50;99.90;;;;;;5114142;28;20107;-71
2023/06/30 01:26:11;;;;;;;7.50;5.00;;;17.50;99.90;;;;;;5113817;28;20023;-71
2023/06/30 01:28:37;;;;;;;8.50;5.70;;;17.50;99.90;;;;;;5113553;28;20058;-71
2023/06/30 01:31:08;;;;;;;12.85;6.00;;;17.50;99.90;;;;;;5113980;28;20028;-71
2023/06/30 01:33:38;;;;;;;9.73;5.65;;;17.30;99.90;;;;;;5114370;28;20042;-71
2023/06/30 01:36:04;;;;;;;9.07;5.75;;;17.20;99.90;;;;;;5113589;28;20035;-71
2023/06/30 01:38:30;;;;;;;10.10;6.32;;;17.00;99.90;;;;;;5113573;28;20020;-72
2023/06/30 01:40:58;;;;;;;10.30;6.50;;;16.90;99.90;;;;;;5113660;28;20073;-71
2023/06/30 01:43:25;;;;;;;10.82;6.32;;;16.80;99.90;;;;;;5113417;28;20024;-71
2023/06/30 01:45:51;;;;;;;10.50;6.43;;;16.60;99.90;;;;;;5113546;28;20044;-71
2023/06/30 01:48:17;;;;;;;9.95;6.60;;;16.60;99.90;;;;;;5113601;28;20058;-71
2023/06/30 01:50:45;;;;;;;10.05;6.47;;;16.50;99.90;;;;;;5113424;28;20016;-70
2023/06/30 01:53:10;;;;;;;9.02;6.28;;;16.60;99.90;;;;;;5113568;28;20099;-71
2023/06/30 01:55:36;;;;;;;13.30;6.53;;;16.60;99.90;;;;;;5113508;28;20051;-71
2023/06/30 01:58:03;;;;;;;9.50;6.00;;;16.60;99.90;;;;;;5095119;28;20031;-71
2023/06/30 02:00:28;;;;;;;11.93;6.55;;;16.70;99.90;;;;;;5113501;28;20031;-71
2023/06/30 02:02:54;;;;;;;8.45;5.68;;;16.80;99.90;;;;;;5115874;28;20382;-71
2023/06/30 02:05:20;;;;;;;10.02;5.65;;;16.80;99.90;;;;;;5117468;28;20034;-71
2023/06/30 02:07:45;;;;;;;8.85;5.88;;;16.80;99.90;;;;;;5099318;28;20031;-71
2023/06/30 02:10:12;;;;;;;9.63;5.70;;;16.90;99.90;;;;;;5099127;28;20024;-71
2023/06/30 02:12:38;;;;;;;9.25;6.03;;;16.90;99.90;;;;;;5117038;28;20028;-71
2023/06/30 02:15:04;;;;;;;10.07;6.78;;;16.90;99.90;;;;;;5128427;27;20449;-71
2023/06/30 02:17:33;;;;;;;11.25;6.45;;;16.90;99.90;;;;;;5138438;27;20025;-71
2023/06/30 02:20:00;;;;;;;8.80;6.05;;;16.80;99.90;;;;;;5137795;27;20024;-71
2023/06/30 02:22:26;;;;;;;7.45;5.43;;;16.80;99.90;;;;;;5137779;27;20038;-71
2023/06/30 02:24:53;;;;;;;8.27;5.90;;;16.70;99.90;;;;;;5137635;27;20098;-71
2023/06/30 02:27:19;;;;;;;9.23;5.78;;;16.70;99.90;;;;;;5137440;27;20023;-71
2023/06/30 02:29:45;;;;;;;9.90;6.18;;;16.60;99.90;;;;;;5119205;27;20034;-71
2023/06/30 02:32:10;;;;;;;9.40;6.68;;;16.60;99.90;;;;;;5119186;27;20032;-71
2023/06/30 02:34:36;;;;;;;7.97;5.93;;;16.50;99.90;;;;;;5137413;27;20439;-71
2023/06/30 02:37:02;;;;;;;9.35;5.43;;;16.40;99.90;;;;;;5137643;27;20023;-72
2023/06/30 02:39:27;;;;;;;7.05;5.28;;;16.40;99.90;;;;;;5137383;27;20026;-71
2023/06/30 02:41:53;;;;;;;10.43;6.20;;;16.40;99.90;;;;;;5137129;27;20031;-71
2023/06/30 02:44:18;;;;;;;8.05;5.45;;;16.40;99.90;;;;;;5137319;27;20057;-71
2023/06/30 02:46:45;;;;;;;8.63;6.03;;;16.50;99.90;;;;;;5137310;27;20028;-72
2023/06/30 02:49:11;;;;;;;9.77;6.18;;;16.50;99.90;;;;;;5137326;27;20027;-72
2023/06/30 02:51:36;;;;;;;8.93;5.78;;;16.50;99.90;;;;;;5137435;27;20027;-71
2023/06/30 02:54:03;;;;;;;8.00;5.20;;;16.40;99.90;;;;;;5137129;27;20110;-72
2023/06/30 02:56:29;;;;;;;9.48;5.95;;;16.40;99.90;;;;;;5137163;27;20088;-72
2023/06/30 02:58:54;;;;;;;9.63;6.13;;;16.30;99.90;;;;;;5136933;27;20038;-71
2023/06/30 03:01:21;;;;;;;8.75;6.20;;;16.40;99.90;;;;;;5137603;27;20511;-72
2023/06/30 03:03:50;;;;;;;9.02;6.32;;;16.40;99.90;;;;;;5136934;27;20019;-72
2023/06/30 03:06:16;;;;;;;8.30;5.45;;;16.40;99.90;;;;;;5137209;27;20035;-72
2023/06/30 03:08:42;;;;;;;8.02;5.47;;;16.50;99.90;;;;;;5136858;27;20492;-72
2023/06/30 03:11:08;;;;;;;8.55;5.72;;;16.50;99.90;;;;;;5136758;27;20027;-71
2023/06/30 03:13:33;;;;;;;9.60;6.35;;;16.40;99.90;;;;;;5117072;27;20545;-72
2023/06/30 03:15:59;;;;;;;7.95;6.03;;;16.40;99.90;;;;;;5118265;27;20031;-72
2023/06/30 03:18:25;;;;;;;8.65;6.20;;;16.40;99.90;;;;;;5136717;27;20030;-72
2023/06/30 03:20:51;;;;;;;7.95;5.70;;;16.30;99.90;;;;;;5137237;27;20488;-72
2023/06/30 03:23:18;;;;;;;7.88;5.55;;;16.20;99.90;;;;;;5118383;27;20050;-72
2023/06/30 03:25:44;;;;;;;8.20;5.65;;;16.20;99.90;;;;;;5136573;27;20023;-72
2023/06/30 03:28:10;;;;;;;10.23;6.78;;;16.00;99.90;;;;;;5136276;27;20030;-72
2023/06/30 03:30:35;;;;;;;8.40;5.93;;;16.00;99.90;;;;;;5137476;27;20023;-71
2023/06/30 03:33:01;;;;;;;9.43;5.97;;;15.90;99.90;;;;;;5118022;27;20027;-71
2023/06/30 03:35:26;;;;;;;8.13;6.07;;;15.80;99.90;;;;;;5136406;27;20024;-71
2023/06/30 03:37:52;;;;;;;8.50;5.78;;;15.70;99.90;;;;;;5134563;27;20037;-71
2023/06/30 03:40:18;;;;;;;8.70;5.60;;;15.80;99.90;;;;;;5135722;27;20024;-71
2023/06/30 03:42:43;;;;;;;8.52;5.55;;;15.80;99.90;;;;;;5134077;27;20073;-71
2023/06/30 03:45:09;;;;;;;11.10;6.18;;;15.90;99.90;;;;;;5135465;27;20031;-71
2023/06/30 03:47:35;;;;;;;8.38;5.10;;;15.90;99.90;;;;;;5134861;27;20039;-72
2023/06/30 03:50:01;;;;;;;8.48;5.63;;;16.00;99.90;;;;;;5134791;27;20104;-71
2023/06/30 03:52:27;;;;;;;8.10;5.13;;;16.00;99.90;;;;;;5135318;27;20035;-71
2023/06/30 03:54:52;;;;;;;8.65;5.68;;;16.00;99.90;;;;;;5135282;27;20024;-72
2023/06/30 03:57:18;;;;;;;8.10;5.45;;;16.00;99.90;;;;;;5135051;27;20478;-71
2023/06/30 03:59:43;;;;;;;7.63;5.47;;;16.00;99.90;;;;;;5135249;27;20384;-71
2023/06/30 04:02:09;;;;;;;10.38;5.93;;;15.90;99.90;;;;;;5135169;27;20050;-72
2023/06/30 04:04:35;;;;;;;9.57;6.38;;;15.90;99.90;;;;;;5135011;27;20499;-72
2023/06/30 04:07:00;;;;;;;8.82;6.18;;;15.90;99.90;;;;;;5117280;27;20050;-72
2023/06/30 04:09:26;;;;;;;8.52;5.70;;;15.80;99.90;;;;;;5116712;27;20027;-72
2023/06/30 04:11:52;;;;;;;8.70;5.88;;;15.80;99.90;;;;;;5115585;27;20031;-71
2023/06/30 04:14:18;;;;;;;7.28;5.05;;;15.80;99.90;;;;;;5123210;27;20030;-71
2023/06/30 04:16:43;;;;;;;10.25;5.97;;;15.80;99.90;;;;;;5127001;27;20034;-71
2023/06/30 04:19:09;;;;;;;9.05;6.45;;;15.80;99.90;;;;;;5130896;27;20027;-71
2023/06/30 04:21:35;;;;;;;8.98;5.90;;;15.90;99.90;;;;;;5128044;27;20032;-71
2023/06/30 04:24:00;;;;;;;7.82;5.65;;;16.00;99.90;;;;;;5128533;27;20042;-71
2023/06/30 04:26:28;;;;;;;9.77;5.80;;;16.00;99.90;;;;;;5129001;27;20054;-71
2023/06/30 04:28:53;;;;;;;9.50;5.97;;;16.00;99.90;;;;;;5118641;27;20389;-71
2023/06/30 04:31:19;;;;;;;9.40;5.60;;;16.10;99.90;;;;;;5114804;28;20030;-71
2023/06/30 04:33:45;;;;;;;8.75;5.78;;;16.10;99.90;;;;;;5114623;28;20047;-71
2023/06/30 04:36:10;;;;;;;8.15;5.90;;;16.20;99.90;;;;;;5114873;28;20024;-71
2023/06/30 04:38:36;;;;;;;9.20;6.00;;;16.20;99.90;;;;;;5099716;27;20027;-71
2023/06/30 04:41:02;;;;;;;9.65;6.07;;;16.20;99.90;;;;;;5134525;27;20023;-71
2023/06/30 04:43:27;;;;;;;9.43;6.35;;;16.20;99.90;;;;;;5115086;27;20072;-71
2023/06/30 04:45:53;;;;;;;7.93;5.57;;;16.20;99.90;;;;;;5114374;27;20218;-72
2023/06/30 04:48:18;;;;;;;9.55;6.22;;;16.20;99.90;;;;;;5097039;27;20027;-72
2023/06/30 04:50:44;;;;;;;9.10;5.90;;;16.20;99.90;;;;;;5132478;27;20105;-73
2023/06/30 04:53:10;;;;;;;8.00;5.53;;;16.20;99.90;;;;;;5132706;27;20030;-73
2023/06/30 04:55:35;;;;;;;10.10;6.82;;;16.20;99.90;;;;;;5134582;27;20027;-73
2023/06/30 04:58:01;;;;;;;9.43;6.07;;;16.30;99.90;;;;;;5134222;27;20035;-73
2023/06/30 05:00:27;;;;;;;9.82;6.57;;;16.30;99.90;;;;;;5133850;27;20102;-73
2023/06/30 05:02:53;;;;;;;8.77;5.75;;;16.20;99.90;;;;;;5135294;27;20027;-73
2023/06/30 05:05:18;;;;;;;9.20;6.07;;;16.20;99.90;;;;;;5134609;27;20389;-73
2023/06/30 05:07:45;;;;;;;8.68;5.82;;;16.30;99.90;;;;;;5134620;27;20031;-73
2023/06/30 05:10:11;;;;;;;9.57;5.80;;;16.30;99.90;;;;;;5134196;27;20038;-73
2023/06/30 05:12:37;;;;;;;8.75;5.93;;;16.40;99.90;;;;;;5134291;27;20377;-73
2023/06/30 05:15:03;;;;;;;8.65;5.82;;;16.50;99.90;;;;;;5134348;27;20500;-73
2023/06/30 05:17:28;;;;;;;10.95;6.30;;;16.60;99.90;;;;;;5134504;27;20031;-73
2023/06/30 05:19:54;;;;;;;12.90;7.40;;;16.70;99.90;;;;;;5116050;27;20030;-73
2023/06/30 05:22:20;;;;;;;10.80;6.88;;;16.80;99.90;;;;;;5134455;27;20031;-73
2023/06/30 05:24:46;;;;;;;9.05;6.28;;;16.80;99.90;;;;;;5133689;27;20441;-73
2023/06/30 05:27:11;;;;;;;10.43;6.35;;;16.90;99.90;;;;;;5133869;27;20023;-72
2023/06/30 05:29:37;;;;;;;8.55;6.38;;;17.00;99.90;;;;;;5133550;27;20023;-72
2023/06/30 05:32:03;;;;;;;11.00;7.20;;;17.00;99.90;;;;;;5133757;27;20064;-72
2023/06/30 05:34:29;;;;;;;10.07;6.38;;;17.00;99.90;;;;;;5115552;28;20053;-72
2023/06/30 05:36:55;;;;;;;11.93;7.60;;;17.00;99.90;;;;;;5133063;27;20027;-72
2023/06/30 05:39:22;;;;;;;12.35;7.45;;;17.00;99.90;;;;;;5133704;28;20020;-72
2023/06/30 05:41:47;;;;;;;13.00;7.43;;;17.10;99.90;;;;;;5130932;28;20027;-72
2023/06/30 05:44:13;;;;;;;10.20;7.07;;;17.10;99.90;;;;;;5133404;28;20033;-72
2023/06/30 05:46:39;;;;;;;11.65;7.78;;;17.20;99.90;;;;;;5133533;28;20023;-72
2023/06/30 05:49:05;;;;;;;11.02;7.00;;;17.20;99.90;;;;;;5133978;28;20062;-72
2023/06/30 05:51:35;;;;;;;12.07;7.38;;;17.30;99.90;;;;;;5134025;28;20024;-72
2023/06/30 05:54:02;;;;;;;12.65;7.90;;;17.30;99.90;;;;;;5134146;28;20112;-72
2023/06/30 05:56:28;;;;;;;13.35;8.10;;;17.40;99.90;;;;;;5134112;28;20469;-72
2023/06/30 05:58:54;;;;;;;11.52;8.52;;;17.50;99.90;;;;;;5133825;28;20031;-73
2023/06/30 06:01:20;;;;;;;11.40;8.05;;;17.50;99.90;;;;;;5133563;28;20039;-73
2023/06/30 06:03:46;;;;;;;11.20;8.07;;;17.60;99.90;;;;;;5113232;28;20096;-72
2023/06/30 06:06:12;;;;;;;16.08;9.20;;;17.60;99.90;;;;;;5113689;28;20024;-72
2023/06/30 06:08:40;;;;;;;12.23;7.75;;;17.70;99.90;;;;;;5117047;28;20027;-73
2023/06/30 06:11:05;;;;;;;14.77;8.73;;;17.70;99.90;;;;;;5133838;28;20104;-73
2023/06/30 06:13:38;;;;;;;16.45;9.55;;;17.80;99.90;;;;;;5133566;28;20078;-73
2023/06/30 06:16:04;;;;;;;11.80;7.75;;;17.90;99.90;;;;;;5134008;28;20031;-73
2023/06/30 06:18:31;;;;;;;13.02;9.02;;;18.00;99.90;;;;;;5134164;28;20026;-73
2023/06/30 06:20:57;;;;;;;13.68;8.77;;;18.10;99.90;;;;;;5134082;28;20404;-73
2023/06/30 06:23:23;;;;;;;15.50;8.80;;;18.20;99.90;;;;;;5115217;28;20031;-73
2023/06/30 06:25:49;;;;;;;10.98;8.13;;;18.20;99.90;;;;;;5133777;28;20481;-73
2023/06/30 06:28:15;;;;;;;11.18;7.78;;;18.20;99.90;;;;;;5133566;28;20043;-73
2023/06/30 06:30:41;;;;;;;12.00;7.63;;;18.30;99.90;;;;;;5133789;28;20019;-72
2023/06/30 06:33:07;;;;;;;10.35;7.07;;;18.20;99.90;;;;;;5133735;28;20106;-73
2023/06/30 06:35:36;;;;;;;13.85;8.18;;;18.20;99.90;;;;;;5133614;28;20068;-73
2023/06/30 06:38:02;;;;;;;16.05;9.48;;;18.20;99.90;;;;;;5133724;28;20481;-73
2023/06/30 06:40:28;;;;;;;13.32;9.20;;;18.20;99.90;;;;;;5114326;28;20024;-72
2023/06/30 06:42:55;;;;;;;14.00;9.20;;;18.20;99.90;;;;;;5113101;28;20026;-72
2023/06/30 06:45:21;;;;;;;11.63;7.78;;;18.20;99.90;;;;;;5113177;28;20089;-73
2023/06/30 06:48:25;;;;;;;12.35;7.68;;;18.20;99.90;;;;;;5113633;28;20390;-72
2023/06/30 06:50:56;;;;;;;11.43;7.60;;;18.20;99.90;;;;;;5117018;28;20354;-73
2023/06/30 06:53:25;;;;;;;11.05;7.47;;;18.30;99.90;;;;;;5116860;28;20107;-72
2023/06/30 06:55:52;;;;;;;11.27;7.32;;;18.30;99.90;;;;;;5098221;28;20106;-73
2023/06/30 06:58:18;;;;;;;10.73;7.07;;;18.40;99.90;;;;;;5098516;28;20015;-73
2023/06/30 07:00:45;;;;;;;10.15;6.88;;;18.50;99.90;;;;;;5098308;28;20024;-73
2023/06/30 07:03:11;;;;;;;12.80;8.02;;;18.60;99.90;;;;;;5098565;28;20028;-73
2023/06/30 07:05:39;;;;;;;11.85;8.10;;;18.60;99.90;;;;;;5117149;28;20521;-72
2023/06/30 07:08:06;;;;;;;10.65;7.55;;;18.70;99.90;;;;;;5136270;27;20130;-72
2023/06/30 07:10:32;;;;;;;14.07;8.93;;;18.80;99.90;;;;;;5134065;27;20088;-72
2023/06/30 07:12:58;;;;;;;12.63;8.63;;;18.90;99.90;;;;;;5136431;27;20122;-73
2023/06/30 07:15:25;;;;;;;13.95;8.27;;;19.00;99.90;;;;;;5131845;27;20114;-73
2023/06/30 07:17:50;;;;;;;11.75;7.93;;;19.10;99.90;;;;;;5116709;28;20363;-73
2023/06/30 07:20:16;;;;;;;12.93;8.95;;;19.20;99.90;;;;;;5116477;28;20022;-72
2023/06/30 07:22:42;;;;;;;13.35;9.18;;;19.30;99.90;;;;;;5116385;28;20466;-73
2023/06/30 07:25:08;;;;;;;11.43;7.97;;;19.40;99.90;;;;;;5116180;28;20556;-72
2023/06/30 07:27:38;;;;;;;12.38;8.90;;;19.50;99.90;;;;;;5116011;28;20028;-72
2023/06/30 07:30:05;;;;;;;15.43;9.82;;;19.50;99.90;;;;;;5116047;28;20107;-72
2023/06/30 07:32:33;;;;;;;12.57;8.45;;;19.60;99.90;;;;;;5115857;28;20116;-72
2023/06/30 07:34:59;;;;;;;13.20;8.98;;;19.50;99.90;;;;;;5115760;28;20393;-73
2023/06/30 07:37:25;;;;;;;14.70;8.55;;;19.60;99.90;;;;;;5097006;28;20028;-73
2023/06/30 07:39:51;;;;;;;12.93;8.63;;;19.50;99.90;;;;;;5129300;27;20030;-72
2023/06/30 07:42:16;;;;;;;12.32;8.50;;;19.60;99.90;;;;;;5135813;27;20089;-73
2023/06/30 07:44:42;;;;;;;16.35;9.57;;;19.60;99.90;;;;;;5135553;27;20398;-72
2023/06/30 07:47:08;;;;;;;13.05;8.77;;;19.70;99.90;;;;;;5135775;27;20489;-73
2023/06/30 07:49:33;;;;;;;14.88;8.55;;;19.70;99.90;;;;;;5135810;27;20080;-72
2023/06/30 07:51:59;;;;;;;11.90;8.45;;;19.70;99.90;;;;;;5135667;27;20118;-72
2023/06/30 07:54:24;;;;;;;11.10;8.02;;;19.70;99.90;;;;;;5135619;27;20062;-72
2023/06/30 07:56:50;;;;;;;16.50;10.15;;;19.80;99.90;;;;;;5135547;27;20110;-73
2023/06/30 07:59:16;;;;;;;17.40;11.13;;;19.90;99.90;;;;;;5134988;27;20097;-73
2023/06/30 08:01:41;;;;;;;15.13;9.75;;;19.90;99.90;;;;;;5135249;27;20042;-73
2023/06/30 08:04:07;;;;;;;14.95;9.93;;;20.00;99.90;;;;;;5135366;27;20039;-72
2023/06/30 08:06:33;;;;;;;15.25;10.10;;;20.00;99.90;;;;;;5134283;27;20075;-72
2023/06/30 08:08:58;;;;;;;15.30;10.15;;;20.10;99.90;;;;;;5135609;27;20140;-73
2023/06/30 08:11:25;;;;;;;17.77;10.75;;;20.20;99.90;;;;;;5134400;27;20110;-72
2023/06/30 08:13:51;;;;;;;18.92;12.02;;;20.20;99.90;;;;;;5135212;27;20564;-72
2023/06/30 08:16:17;;;;;;;18.23;12.57;;;20.40;99.90;;;;;;5135644;27;20129;-72
2023/06/30 08:18:42;;;;;;;18.58;11.07;;;20.40;99.90;;;;;;5135838;27;20061;-72
2023/06/30 08:21:08;;;;;;;19.30;12.25;;;20.50;99.90;;;;;;5136072;27;20042;-72
2023/06/30 08:23:35;;;;;;;18.65;12.02;;;20.50;99.90;;;;;;5135704;27;20039;-72
2023/06/30 08:26:00;;;;;;;19.67;11.85;;;20.40;99.90;;;;;;5135375;27;20167;-73
2023/06/30 08:28:26;;;;;;;18.45;11.63;;;20.40;99.90;;;;;;5135172;27;20024;-73
2023/06/30 08:30:52;;;;;;;16.27;11.32;;;20.30;99.90;;;;;;5135540;27;20023;-73
2023/06/30 08:33:17;;;;;;;21.63;12.30;;;20.30;99.90;;;;;;5135528;27;20031;-73
2023/06/30 08:35:43;;;;;;;19.77;12.40;;;20.30;99.90;;;;;;5135513;27;20072;-73
2023/06/30 08:38:09;;;;;;;17.08;11.63;;;20.30;99.90;;;;;;5135462;27;20491;-73
2023/06/30 08:40:35;;;;;;;19.10;12.25;;;20.30;99.90;;;;;;5135086;27;20385;-73
2023/06/30 08:43:06;;;;;;;19.23;12.50;;;20.30;99.90;;;;;;5134865;27;20042;-73
2023/06/30 08:45:32;;;;;;;20.50;13.05;;;20.20;99.90;;;;;;5116613;27;20023;-73
2023/06/30 08:48:04;;;;;;;19.95;13.23;;;20.20;99.90;;;;;;5134992;27;20072;-73
2023/06/30 08:50:34;;;;;;;20.83;13.57;;;20.10;99.90;;;;;;5135300;27;20015;-73
2023/06/30 08:53:00;;;;;;;22.80;14.55;;;20.10;99.90;;;;;;5135063;27;20062;-72
2023/06/30 08:55:26;;;;;;;21.63;13.43;;;20.10;99.90;;;;;;5134792;27;20027;-73
2023/06/30 08:57:56;;;;;;;19.13;13.05;;;20.00;99.90;;;;;;5134536;27;20180;-73
2023/06/30 09:00:25;;;;;;;21.23;13.90;;;20.10;99.90;;;;;;5134792;27;20673;-73
2023/06/30 09:02:53;;;;;;;21.00;12.82;;;20.10;99.90;;;;;;5134764;27;20030;-72
2023/06/30 09:05:20;;;;;;;19.65;13.52;;;20.10;99.90;;;;;;5134637;27;20023;-73
2023/06/30 09:07:55;;;;;;;21.15;13.75;;;20.10;99.90;;;;;;5134675;27;20557;-72
2023/06/30 09:10:27;;;;;;;20.80;13.40;;;20.10;99.90;;;;;;5134673;27;20034;-73
2023/06/30 09:12:59;;;;;;;20.27;13.48;;;20.20;99.90;;;;;;5133683;27;20537;-73
2023/06/30 09:15:25;;;;;;;20.58;13.25;;;20.20;99.90;;;;;;5134643;27;20456;-73
2023/06/30 09:17:55;;;;;;;19.45;12.77;;;20.30;99.90;;;;;;5135291;27;20107;-73
2023/06/30 09:20:21;;;;;;;18.98;12.98;;;20.30;99.90;;;;;;5116230;27;20476;-73
2023/06/30 09:22:47;;;;;;;22.90;15.18;;;20.30;99.90;;;;;;5134434;27;20078;-72
2023/06/30 09:25:27;;;;;;;21.75;12.85;;;20.30;99.90;;;;;;5134643;27;20110;-73
2023/06/30 09:27:54;;;;;;;19.45;13.52;;;20.30;99.90;;;;;;5134689;27;20362;-73
2023/06/30 09:30:33;;;;;;;18.85;13.13;;;20.30;99.90;;;;;;5134710;27;20088;-73
2023/06/30 09:32:59;;;;;;;20.60;13.43;;;20.30;99.90;;;;;;5134227;27;20102;-73
2023/06/30 09:35:25;;;;;;;18.90;12.23;;;20.30;99.90;;;;;;5134522;27;20545;-73
2023/06/30 09:37:53;;;;;;;20.83;13.45;;;20.40;99.90;;;;;;5134575;28;20070;-73
2023/06/30 09:40:24;;;;;;;19.70;12.98;;;20.40;99.90;;;;;;5134231;28;20443;-73
2023/06/30 09:42:53;;;;;;;22.42;13.27;;;20.50;99.90;;;;;;5115833;28;20110;-74
2023/06/30 09:45:19;;;;;;;22.05;13.13;;;20.50;99.90;;;;;;5133868;28;20023;-73
2023/06/30 09:47:53;;;;;;;22.30;12.90;;;20.50;99.90;;;;;;5134205;28;20143;-74
2023/06/30 09:50:31;;;;;;;19.58;12.45;;;20.50;99.90;;;;;;5134462;28;20032;-73
2023/06/30 09:52:56;;;;;;;18.75;12.05;;;20.50;99.90;;;;;;5134184;28;20028;-74
2023/06/30 09:55:22;;;;;;;19.88;13.52;;;20.40;99.90;;;;;;5134523;28;20440;-74
2023/06/30 09:57:48;;;;;;;21.52;12.65;;;20.40;99.90;;;;;;5134754;28;20023;-73
2023/06/30 10:00:16;;;;;;;21.80;14.50;;;20.30;99.90;;;;;;5133802;28;20020;-73
2023/06/30 10:02:43;;;;;;;19.92;12.60;;;20.20;99.90;;;;;;5134075;28;20034;-74
2023/06/30 10:05:12;;;;;;;21.50;13.60;;;20.20;99.90;;;;;;5133981;28;20438;-74
2023/06/30 10:07:40;;;;;;;21.63;13.70;;;20.20;99.90;;;;;;5133981;28;20027;-73
2023/06/30 10:10:12;;;;;;;20.25;12.98;;;20.20;99.90;;;;;;5134019;28;20035;-73
2023/06/30 10:12:41;;;;;;;20.27;12.65;;;20.30;99.90;;;;;;5134503;28;20019;-74
2023/06/30 10:15:09;;;;;;;22.20;13.40;;;20.30;99.90;;;;;;5133554;28;20031;-73
2023/06/30 10:17:37;;;;;;;21.63;13.90;;;20.40;99.90;;;;;;5134196;28;20061;-74
2023/06/30 10:20:06;;;;;;;19.33;12.75;;;20.50;99.90;;;;;;5133913;28;20465;-74
2023/06/30 10:22:32;;;;;;;17.50;12.40;;;20.60;99.90;;;;;;5134203;27;20039;-74
2023/06/30 10:24:58;;;;;;;20.88;13.55;;;20.80;99.90;;;;;;5137758;27;20035;-74
2023/06/30 10:27:24;;;;;;;21.27;13.02;;;20.90;99.90;;;;;;5137876;27;20027;-73
2023/06/30 10:29:50;;;;;;;18.55;11.93;;;21.00;99.90;;;;;;5137493;27;20110;-73
2023/06/30 10:32:20;;;;;;;16.40;10.75;;;21.10;99.90;;;;;;5137547;27;20395;-74
2023/06/30 10:34:49;;;;;;;18.70;11.77;;;21.10;99.90;;;;;;5137594;27;20102;-73
2023/06/30 10:37:15;;;;;;;22.58;12.27;;;21.20;99.90;;;;;;5137596;27;20483;-74
2023/06/30 10:39:43;;;;;;;16.40;10.98;;;21.30;99.90;;;;;;5137446;27;20027;-74
2023/06/30 10:42:11;;;;;;;18.52;10.88;;;21.40;99.90;;;;;;5137477;27;20102;-74
2023/06/30 10:44:38;;;;;;;15.10;10.10;;;21.60;99.90;;;;;;5137096;27;20473;-73
2023/06/30 10:47:04;;;;;;;16.42;10.98;;;21.90;99.90;;;;;;5137396;27;20035;-74
2023/06/30 10:49:38;;;;;;;18.55;11.18;;;22.30;99.90;;;;;;5137451;27;20027;-74
2023/06/30 10:52:09;;;;;;;19.45;11.40;;;22.40;99.90;;;;;;5137527;27;20488;-74
2023/06/30 10:54:41;;;;;;;15.45;10.55;;;22.60;99.90;;;;;;5137347;27;20038;-74
2023/06/30 10:57:13;;;;;;;13.88;9.98;;;22.70;99.90;;;;;;5137157;27;20405;-72
2023/06/30 10:59:42;;;;;;;15.48;9.65;;;22.70;99.90;;;;;;5136902;27;20023;-72
2023/06/30 11:02:17;;;;;;;16.83;11.30;;;22.80;99.90;;;;;;5137084;27;20415;-73
2023/06/30 11:04:47;;;;;;;18.27;11.30;;;22.90;99.90;;;;;;5137034;27;20481;-73
2023/06/30 11:07:23;;;;;;;15.40;10.02;;;22.90;99.90;;;;;;5136994;27;20119;-73
2023/06/30 11:09:49;;;;;;;13.95;10.00;;;23.00;99.90;;;;;;5136975;27;20156;-73
2023/06/30 11:12:19;;;;;;;15.10;9.68;;;23.00;99.90;;;;;;5136851;27;20098;-73
2023/06/30 11:14:59;;;;;;;17.77;9.83;;;23.10;99.90;;;;;;5136596;27;20035;-72
2023/06/30 11:18:01;;;;;;;16.10;10.53;;;23.10;99.90;;;;;;5136849;27;20072;-73
2023/06/30 11:20:27;;;;;;;16.75;10.63;;;23.10;99.90;;;;;;5033619;28;20029;-73
2023/06/30 11:23:05;;;;;;;14.45;10.63;;;23.10;99.90;;;;;;5115536;27;20043;-73
2023/06/30 11:25:32;;;;;;;15.50;10.15;;;23.10;99.90;;;;;;5136594;27;20031;-73
2023/06/30 11:28:01;;;;;;;16.63;10.57;;;23.10;99.90;;;;;;5136653;27;20166;-73
2023/06/30 11:30:31;;;;;;;17.67;9.95;;;23.20;99.90;;;;;;5136282;27;20473;-72
2023/06/30 11:32:58;;;;;;;13.90;10.40;;;23.20;99.90;;;;;;5136775;27;20031;-73
2023/06/30 11:35:26;;;;;;;16.83;10.63;;;23.10;99.90;;;;;;5135351;27;20029;-73
2023/06/30 11:37:52;;;;;;;17.30;10.77;;;23.00;99.90;;;;;;5136382;27;20384;-73
2023/06/30 11:40:19;;;;;;;13.77;9.88;;;22.80;99.90;;;;;;5136284;27;20019;-73
2023/06/30 11:42:45;;;;;;;19.55;11.55;;;22.60;99.90;;;;;;5136318;27;20035;-73
2023/06/30 11:45:16;;;;;;;14.10;10.50;;;22.40;99.90;;;;;;5135936;27;20031;-72
2023/06/30 11:47:46;;;;;;;19.88;11.00;;;22.30;99.90;;;;;;5136830;27;20019;-73
2023/06/30 11:50:12;;;;;;;17.20;10.95;;;22.20;99.90;;;;;;5136479;27;20023;-73
2023/06/30 11:52:39;;;;;;;14.60;10.02;;;22.10;99.90;;;;;;5136249;27;20447;-73
2023/06/30 11:55:09;;;;;;;14.05;10.15;;;22.00;99.90;;;;;;5136008;27;20076;-73
2023/06/30 11:57:40;;;;;;;15.95;9.63;;;21.90;99.90;;;;;;5136067;27;20019;-73
2023/06/30 12:00:06;;;;;;;;;;;21.90;99.90;;;;;;5136284;27;20027;-72
2023/06/30 12:02:32;;;;;;;15.95;10.60;;;21.80;99.90;;;;;;5135925;27;20360;-73
2023/06/30 12:04:58;;;;;;;15.57;9.65;;;21.80;99.90;;;;;;5135957;27;20027;-73
2023/06/30 12:07:24;;;;;;;15.52;10.50;;;21.70;99.90;;;;;;5135864;27;20038;-73
2023/06/30 12:10:00;;;;;;;14.00;8.70;;;21.70;99.90;;;;;;5135749;27;20054;-73
2023/06/30 12:12:27;;;;;;;14.23;9.50;;;21.50;99.90;;;;;;5135865;27;20100;-73
2023/06/30 12:14:54;;;;;;;13.07;8.35;;;21.40;99.90;;;;;;5135400;27;20109;-72
2023/06/30 12:17:20;;;;;;;11.63;8.55;;;21.40;99.90;;;;;;5117214;27;20027;-73
2023/06/30 12:19:45;;;;;;;12.80;8.50;;;21.30;99.90;;;;;;5135602;27;20030;-73
2023/06/30 12:22:14;;;;;;;14.32;8.95;;;21.20;99.90;;;;;;5135564;27;20033;-73
2023/06/30 12:24:42;;;;;;;12.65;8.88;;;21.20;99.90;;;;;;5135964;27;20091;-73
2023/06/30 12:27:08;;;;;;;11.95;8.50;;;21.20;99.90;;;;;;5135417;27;20023;-73
2023/06/30 12:29:35;;;;;;;14.38;9.15;;;21.20;99.90;;;;;;5135286;27;20035;-72
2023/06/30 12:32:13;;;;;;;13.93;9.18;;;21.30;99.90;;;;;;5135857;27;20027;-73
2023/06/30 12:34:39;;;;;;;12.32;8.80;;;21.30;99.90;;;;;;5135408;27;20023;-73
2023/06/30 12:37:05;;;;;;;13.13;8.93;;;21.30;99.90;;;;;;5135229;27;20023;-73
2023/06/30 12:39:31;;;;;;;12.68;9.07;;;21.40;99.90;;;;;;5133368;27;20023;-73